Latest Weather Observations for Troughton Island

IDD60801

Issued at 4:01 pm CST Friday 3 December 2021 (issued every 10 minutes, with the page automatically refreshed every 10 minutes)

About weather observations | Map of weather stations | Latest weather observations for NT | Other Formats
Station Details ID: 001007 Name: TROUGHTON ISLAND Lat: -13.75 Lon: 126.15 Height: 6.0 m
Data from the previous 72 hours. | See also: Recent months at Troughton Island
Date/Time
CST
Temp
°C
App
Temp
°C
Dew
Point
°C
Rel
Hum
%
Delta-T
°C
Wind Press
QNH
hPa
Press
MSL
hPa
Rain since
9am
mm
Dir  Spd
km/h
Gust
km/h
Spd
kts
Gust
kts
03/04:00pm 33.1 35.2 27.1 71 4.4 W 30 35 16 19 1006.0 1005.9 0.0
03/03:30pm 33.8 36.1 26.8 67 5.1 W 28 33 15 18 1006.3 1006.2 0.0
03/03:00pm 33.3 35.1 26.1 66 5.2 WSW 28 33 15 18 1006.5 1006.4 0.0
03/02:30pm 33.9 37.4 27.4 69 4.7 WSW 24 30 13 16 1006.8 1006.7 0.0
03/02:00pm 34.3 36.8 26.5 64 5.6 WSW 26 30 14 16 1007.0 1006.9 0.0
03/01:30pm 34.7 37.6 26.6 63 5.9 W 24 28 13 15 1007.3 1007.2 0.0
03/01:00pm 34.0 37.2 26.5 65 5.4 W 22 26 12 14 1007.8 1007.7 0.0
03/12:30pm 34.8 38.9 26.4 61 6.1 W 17 20 9 11 1008.4 1008.3 0.0
03/12:00pm 33.3 36.7 26.1 66 5.2 WSW 20 24 11 13 1008.6 1008.5 0.0
03/11:30am 33.4 36.5 26.9 68 4.7 WSW 24 30 13 16 1008.8 1008.7 0.0
03/11:00am 32.6 35.4 26.4 70 4.5 SW 24 30 13 16 1009.1 1009.0 0.0
03/10:30am 33.5 36.6 26.8 68 4.8 WSW 24 32 13 17 1009.1 1009.0 0.0
03/10:00am 32.2 34.0 26.0 70 4.4 WSW 28 32 15 17 1009.2 1009.1 0.0
03/09:30am 31.6 34.3 26.2 73 3.9 SW 24 30 13 16 1009.4 1009.3 0.0
03/09:00am 31.5 33.3 26.1 73 3.9 WSW 28 35 15 19 1009.1 1009.0 0.0
03/08:30am 30.8 32.3 25.6 74 3.7 WSW 28 32 15 17 1008.9 1008.8 0.0
03/08:00am 30.7 32.9 26.0 76 3.3 WSW 26 32 14 17 1008.7 1008.6 0.0
03/07:30am 30.4 33.1 26.3 79 2.9 WSW 24 28 13 15 1008.3 1008.2 0.0
03/07:00am 29.8 32.2 25.8 79 2.8 WSW 24 28 13 15 1008.1 1008.0 0.0
03/06:30am 29.6 32.5 26.0 81 2.6 W 22 26 12 14 1007.7 1007.6 0.0
03/06:00am 29.6 32.3 26.2 82 2.4 W 24 28 13 15 1007.4 1007.3 0.0
03/05:30am 29.7 32.4 25.7 79 2.8 W 22 26 12 14 1007.2 1007.1 0.0
03/05:00am 29.7 32.6 25.9 80 2.7 W 22 26 12 14 1007.2 1007.1 0.0
03/04:30am 29.8 33.1 26.0 80 2.7 W 20 26 11 14 1007.1 1007.0 0.0
03/04:00am 29.9 32.9 26.1 80 2.7 W 22 28 12 15 1007.1 1007.0 0.0
03/03:30am 29.9 33.1 26.5 82 2.4 W 22 26 12 14 1007.1 1007.0 0.0
03/03:00am 29.9 33.1 26.5 82 2.4 W 22 26 12 14 1007.1 1007.0 0.0
03/02:30am 30.0 33.3 26.6 82 2.4 W 22 26 12 14 1007.2 1007.1 0.0
03/02:00am 30.0 33.5 26.8 83 2.3 W 22 28 12 15 1007.5 1007.4 0.0
03/01:30am 30.1 33.2 26.9 83 2.3 W 24 30 13 16 1007.6 1007.5 0.0
03/01:00am 30.1 33.1 26.7 82 2.4 W 24 30 13 16 1008.1 1008.0 0.0
03/12:30am 30.2 32.9 26.8 82 2.4 W 26 30 14 16 1008.3 1008.2 0.0
03/12:00am 30.3 32.7 26.9 82 2.4 W 28 33 15 18 1008.4 1008.3 0.0
 
Date/Time
CST
Temp
°C
App
Temp
°C
Dew
Point
°C
Rel
Hum
%
Delta-T
°C
Wind Press
QNH
hPa
Press
MSL
hPa
Rain since
9am
mm
Dir  Spd
km/h
Gust
km/h
Spd
kts
Gust
kts
02/11:30pm 30.3 32.8 26.5 80 2.7 W 26 30 14 16 1008.7 1008.6 0.0
02/11:00pm 30.3 33.3 26.7 81 2.6 W 24 30 13 16 1008.9 1008.8 0.0
02/10:30pm 30.4 32.2 26.6 80 2.7 W 30 33 16 18 1008.6 1008.5 0.0
02/10:00pm 30.5 32.4 26.7 80 2.7 W 30 35 16 19 1008.5 1008.4 0.0
02/09:30pm 30.5 32.4 26.2 78 3.1 W 28 35 15 19 1008.5 1008.4 0.0
02/09:00pm 30.6 32.3 26.5 79 2.9 W 30 35 16 19 1008.3 1008.2 0.0
02/08:30pm 30.7 32.0 26.4 78 3.1 W 32 35 17 19 1008.1 1008.0 0.0
02/08:00pm 30.7 32.2 26.2 77 3.2 W 30 35 16 19 1007.8 1007.7 0.0
02/07:30pm 30.8 32.4 26.3 77 3.2 W 30 35 16 19 1007.5 1007.4 0.0
02/07:00pm 31.0 32.2 26.3 76 3.4 WNW 32 37 17 20 1006.9 1006.8 0.0
02/06:30pm 31.6 32.0 25.9 72 4.1 WNW 35 43 19 23 1006.5 1006.4 0.0
02/06:00pm 32.0 32.9 26.1 71 4.2 WNW 33 41 18 22 1006.1 1006.0 0.0
02/05:30pm 32.4 33.0 26.2 70 4.4 WNW 35 43 19 23 1006.2 1006.1 0.0
02/05:00pm 32.5 33.3 26.6 71 4.2 WNW 35 43 19 23 1006.2 1006.1 0.0
02/04:30pm 32.9 33.9 26.2 68 4.8 WNW 33 41 18 22 1006.2 1006.1 0.0
02/04:00pm 32.6 33.0 25.9 68 4.8 WNW 35 41 19 22 1006.5 1006.4 0.0
02/03:30pm 33.2 34.7 26.2 66 5.0 W 30 35 16 19 1006.9 1006.8 0.0
02/03:00pm 33.5 34.7 25.7 63 5.6 W 30 35 16 19 1007.2 1007.1 0.0
02/02:30pm 34.0 36.3 26.2 63 5.6 W 26 33 14 18 1007.5 1007.4 0.0
02/02:00pm 34.0 35.7 25.9 62 5.8 W 28 32 15 17 1007.9 1007.8 0.0
02/01:30pm 33.8 35.4 25.8 63 5.7 WSW 28 33 15 18 1008.1 1008.0 0.0
02/01:00pm 34.0 36.1 26.5 65 5.4 WSW 28 33 15 18 1008.3 1008.2 0.0
02/12:30pm 33.4 35.3 26.2 66 5.2 WSW 28 32 15 17 1008.6 1008.5 0.0
02/12:00pm 33.5 35.7 26.0 65 5.4 WSW 26 32 14 17 1008.9 1008.8 0.0
02/11:30am 33.8 35.8 26.3 65 5.4 SW 28 35 15 19 1009.0 1008.9 0.0
02/11:00am 33.6 35.6 25.8 63 5.6 WSW 26 32 14 17 1009.0 1008.9 0.0
02/10:30am 33.2 34.7 24.9 61 5.9 SW 26 33 14 18 1009.3 1009.2 0.0
02/10:00am 32.5 34.0 25.6 67 4.9 SW 28 33 15 18 1009.5 1009.4 0.0
02/09:30am 32.5 34.7 26.1 69 4.6 SW 26 33 14 18 1009.5 1009.4 0.0
02/09:00am 31.8 34.0 26.1 72 4.1 WSW 26 33 14 18 1009.4 1009.3 0.0
02/08:30am 31.3 32.8 25.6 71 4.0 WSW 28 35 15 19 1009.1 1009.0 0.0
02/08:00am 31.0 32.0 26.0 74 3.6 WSW 32 37 17 20 1008.8 1008.7 0.0
02/07:30am 30.3 31.2 25.8 77 3.2 WSW 32 37 17 20 1008.7 1008.6 0.0
02/07:00am 30.1 31.0 25.8 78 3.1 WSW 32 35 17 19 1008.4 1008.3 0.0
02/06:30am 29.9 31.7 26.1 80 2.7 WSW 28 33 15 18 1008.2 1008.1 0.0
02/06:00am 29.9 31.2 25.9 79 2.8 WSW 30 33 16 18 1007.9 1007.8 0.0
02/05:30am 29.8 31.1 25.8 79 2.8 WSW 30 37 16 20 1007.7 1007.6 0.0
02/05:00am 29.8 31.1 25.8 79 2.8 WSW 30 37 16 20 1007.3 1007.2 0.0
02/04:30am 30.0 31.1 26.4 81 2.6 WSW 33 37 18 20 1007.2 1007.1 0.0
02/04:00am 30.0 31.1 26.2 80 2.7 WSW 32 37 17 20 1007.1 1007.0 0.0
02/03:30am 29.9 31.0 26.1 80 2.7 W 32 35 17 19 1007.1 1007.0 0.0
02/03:00am 30.0 31.0 26.2 80 2.7 W 33 39 18 21 1007.1 1007.0 0.0
02/02:30am 30.1 31.4 26.5 81 2.6 W 32 37 17 20 1007.3 1007.2 0.0
02/02:00am 30.1 31.4 26.5 81 2.6 W 32 37 17 20 1007.5 1007.4 0.0
02/01:30am 30.3 31.8 26.7 81 2.6 W 32 39 17 21 1008.0 1007.9 0.0
02/01:00am 30.3 31.6 26.5 80 2.7 W 32 37 17 20 1008.4 1008.3 0.0
02/12:30am 30.3 31.4 26.2 79 2.9 W 32 35 17 19 1008.7 1008.6 0.0
02/12:00am 30.5 32.1 26.9 81 2.6 W 32 37 17 20 1008.8 1008.7 0.0
 
Date/Time
CST
Temp
°C
App
Temp
°C
Dew
Point
°C
Rel
Hum
%
Delta-T
°C
Wind Press
QNH
hPa
Press
MSL
hPa
Rain since
9am
mm
Dir  Spd
km/h
Gust
km/h
Spd
kts
Gust
kts
01/11:30pm 30.5 31.8 26.7 80 2.7 W 33 39 18 21 1009.0 1008.9 0.0
01/11:00pm 30.6 32.1 26.7 80 2.8 W 32 37 17 20 1009.1 1009.0 0.0
01/10:30pm 30.6 31.9 26.5 79 2.9 W 32 37 17 20 1008.9 1008.8 0.0
01/10:00pm 30.7 32.7 26.4 78 3.1 WNW 28 33 15 18 1008.8 1008.7 0.0
01/09:30pm 30.7 32.9 26.6 79 2.9 WNW 28 35 15 19 1008.6 1008.5 0.0
01/09:00pm 30.8 32.5 26.5 78 3.1 WNW 30 33 16 18 1008.3 1008.2 0.0
01/08:30pm 30.9 32.6 26.4 77 3.2 WNW 30 35 16 19 1007.9 1007.8 0.0
01/08:00pm 31.0 32.2 26.3 76 3.4 WNW 32 35 17 19 1007.5 1007.4 0.0
01/07:30pm 31.1 32.2 26.1 75 3.6 WNW 32 37 17 20 1007.0 1006.9 0.0
01/07:00pm 31.5 32.4 25.8 72 4.1 WNW 32 37 17 20 1006.7 1006.6 0.0
01/06:30pm 31.7 32.4 25.8 71 4.2 WNW 33 39 18 21 1006.3 1006.2 0.0
01/06:00pm 32.7 33.9 26.3 69 4.6 WNW 32 39 17 21 1005.8 1005.7 0.0
01/05:30pm 32.9 33.5 25.4 64 5.3 WNW 32 39 17 21 1005.6 1005.5 0.0
01/05:00pm 33.2 34.2 26.2 66 5.0 WNW 33 41 18 22 1005.3 1005.2 0.0
01/04:30pm 33.5 34.7 26.5 67 5.1 W 33 39 18 21 1005.5 1005.4 0.0
01/04:00pm 33.7 34.5 25.9 63 5.6 WNW 33 43 18 23 1005.9 1005.8 0.0
01/03:30pm 34.2 36.0 26.1 62 5.8 WNW 28 35 15 19 1006.3 1006.2 0.0
01/03:00pm 34.5 36.7 26.1 61 6.0 W 26 30 14 16 1006.5 1006.4 0.0
01/02:30pm 34.4 36.6 25.5 60 6.4 W 24 32 13 17 1006.6 1006.5 0.0
01/02:00pm 34.9 37.0 25.4 58 6.8 W 24 30 13 16 1007.1 1007.0 0.0
01/01:30pm 34.3 36.4 25.4 60 6.3 W 24 30 13 16 1007.7 1007.6 0.0
01/01:00pm 34.5 36.9 26.4 62 5.8 WSW 26 30 14 16 1008.2 1008.1 0.0
01/12:30pm 34.5 37.7 26.4 62 5.8 WSW 22 28 12 15 1008.5 1008.4 0.0
01/12:00pm 34.2 37.4 25.9 62 5.9 WSW 20 24 11 13 1008.8 1008.7 0.0
01/11:30am 33.7 36.0 25.7 63 5.7 WSW 24 28 13 15 1008.9 1008.8 0.0
01/11:00am 33.4 35.9 24.8 60 6.1 WSW 20 26 11 14 1009.1 1009.0 0.0
01/10:30am 34.0 35.8 24.8 58 6.5 WSW 24 28 13 15 1009.2 1009.1 0.0
01/10:00am 33.0 35.5 25.3 64 5.5 WSW 22 26 12 14 1009.3 1009.2 0.0
01/09:30am 32.6 35.5 25.9 68 4.8 WSW 22 26 12 14 1009.2 1009.1 0.0
01/09:00am 32.2 35.0 25.8 69 4.6 WSW 22 28 12 15 1009.0 1008.9 0.0
01/08:30am 31.4 34.1 25.7 71 4.1 WSW 22 28 12 15 1008.6 1008.5 0.0
01/08:00am 31.0 33.4 25.8 74 3.7 SW 24 28 13 15 1008.4 1008.3 0.0
01/07:30am 30.7 33.1 25.8 75 3.5 WSW 24 28 13 15 1008.0 1007.9 0.0
01/07:00am 30.3 32.4 25.4 75 3.5 WSW 24 28 13 15 1007.6 1007.5 0.0
01/06:30am 30.0 32.3 26.2 80 2.7 WSW 26 28 14 15 1007.1 1007.0 0.0
01/06:00am 29.9 32.0 25.9 79 2.8 W 26 30 14 16 1006.9 1006.8 0.0
01/05:30am 30.0 31.6 25.7 78 3.1 W 28 32 15 17 1006.4 1006.3 0.0
01/05:00am 30.1 31.7 25.8 78 3.1 W 28 32 15 17 1006.0 1005.9 0.0
01/04:30am 30.0 31.5 25.5 77 3.2 W 28 32 15 17 1006.0 1005.9 0.0
01/04:00am 30.0 31.7 25.3 76 3.3 W 26 30 14 16 1006.2 1006.1 0.0
01/03:30am 30.1 32.9 25.8 78 3.1 W 22 28 12 15 1006.4 1006.3 0.0
01/03:00am 30.2 33.1 25.9 78 3.1 W 22 26 12 14 1006.5 1006.4 0.0
01/02:30am 30.2 33.2 25.5 76 3.3 W 20 26 11 14 1006.6 1006.5 0.0
01/02:00am 30.3 33.5 25.6 76 3.3 W 19 24 10 13 1006.8 1006.7 0.0
01/01:30am 30.5 33.0 25.3 74 3.7 W 22 26 12 14 1007.2 1007.1 0.0
01/01:00am 30.5 33.9 26.2 78 3.1 W 20 24 11 13 1007.6 1007.5 0.0
01/12:30am 30.6 34.1 26.3 78 3.1 W 20 24 11 13 1007.9 1007.8 0.0
01/12:00am 30.7 34.0 26.0 76 3.3 W 20 26 11 14 1008.2 1008.1 0.0
 
Date/Time
CST
Temp
°C
App
Temp
°C
Dew
Point
°C
Rel
Hum
%
Delta-T
°C
Wind Press
QNH
hPa
Press
MSL
hPa
Rain since
9am
mm
Dir  Spd
km/h
Gust
km/h
Spd
kts
Gust
kts
30/11:30pm 30.9 34.1 25.9 74 3.6 W 20 26 11 14 1008.4 1008.3 0.0
30/11:00pm 31.0 33.8 25.8 74 3.7 W 22 24 12 13 1008.2 1008.1 0.0
30/10:30pm 31.3 33.8 25.4 71 4.2 W 22 26 12 14 1008.2 1008.1 0.0
30/10:00pm 31.5 34.4 25.4 70 4.3 W 20 24 11 13 1008.1 1008.0 0.0
30/09:30pm 31.6 35.0 25.2 69 4.5 W 17 20 9 11 1007.8 1007.7 0.0
30/09:00pm 31.6 34.0 24.2 65 5.2 W 19 20 10 11 1007.5 1007.4 0.0
30/08:30pm 31.8 34.5 24.1 63 5.4 WNW 17 20 9 11 1007.2 1007.1 0.0
30/08:00pm 31.8 34.7 24.4 65 5.2 W 17 22 9 12 1006.7 1006.6 0.0
30/07:30pm 31.8 34.3 24.7 66 5.0 WNW 20 22 11 12 1006.2 1006.1 0.0
30/07:00pm 32.4 34.9 24.7 64 5.4 WNW 20 24 11 13 1005.7 1005.6 0.0
30/06:30pm 32.3 33.6 24.1 62 5.7 W 24 28 13 15 1005.4 1005.3 0.0
30/06:00pm 32.7 34.0 24.7 62 5.6 WSW 26 32 14 17 1005.1 1005.0 0.0

Other formats

Comma delimited format used in spreadsheet applications
http://www.bom.gov.au/fwo/IDD60801/IDD60801.94102.axf

JavaScript Object Notation format (JSON) in row-major order
http://www.bom.gov.au/fwo/IDD60801/IDD60801.94102.json

Data quality

Most of these data are generated automatically and are frequently updated. Quality checks on data are not normally performed. It is possible for incorrect values to appear. Refer to information at About Latest Weather Observations and please check the disclaimer before using these data.